createdAt,value
2022-12-18T00:00:23.804Z,-9.14
2022-12-18T00:01:23.909Z,-9.14
2022-12-18T00:02:23.845Z,-9.13
2022-12-18T00:03:23.916Z,-9.14
2022-12-18T00:04:23.912Z,-9.13
2022-12-18T00:05:23.766Z,-9.13
2022-12-18T00:06:23.989Z,-9.10
2022-12-18T00:07:24.085Z,-9.13
2022-12-18T00:08:24.213Z,-9.10
2022-12-18T00:09:24.232Z,-9.11
2022-12-18T00:10:24.223Z,-9.10
2022-12-18T00:11:23.712Z,-9.15
2022-12-18T00:12:24.324Z,-9.17
2022-12-18T00:13:23.699Z,-9.13
2022-12-18T00:14:23.720Z,-9.07
2022-12-18T00:15:23.717Z,-9.14
2022-12-18T00:16:23.809Z,-9.13
2022-12-18T00:17:23.855Z,-9.13
2022-12-18T00:18:23.857Z,-9.11
2022-12-18T00:19:23.866Z,-9.11
2022-12-18T00:20:23.676Z,-9.05
2022-12-18T00:21:23.998Z,-9.14
2022-12-18T00:22:23.886Z,-9.10
2022-12-18T00:23:24.096Z,-9.08
2022-12-18T00:24:24.107Z,-9.13
2022-12-18T00:25:24.194Z,-9.13
2022-12-18T00:26:24.124Z,-9.08
2022-12-18T00:27:24.333Z,-9.11
2022-12-18T00:28:23.723Z,-9.13
2022-12-18T00:29:24.244Z,-9.13
2022-12-18T00:30:23.941Z,-9.08
2022-12-18T00:31:24.395Z,-9.14
2022-12-18T00:32:23.820Z,-9.13
2022-12-18T00:33:23.669Z,-9.10
2022-12-18T00:34:23.797Z,-9.11
2022-12-18T00:35:24.067Z,-9.10
2022-12-18T00:36:24.403Z,-9.10
2022-12-18T00:37:23.579Z,-9.14
2022-12-18T00:38:24.199Z,-9.11
2022-12-18T00:39:23.598Z,-9.07
2022-12-18T00:40:24.417Z,-9.08
2022-12-18T00:41:23.807Z,-9.02
2022-12-18T00:42:23.727Z,-8.99
2022-12-18T00:43:24.029Z,-9.00
2022-12-18T00:44:23.486Z,-8.97
2022-12-18T00:45:23.888Z,-9.02
2022-12-18T00:46:23.635Z,-9.00
2022-12-18T00:47:24.355Z,-8.97
2022-12-18T00:48:24.335Z,-9.00
2022-12-18T00:49:23.654Z,-8.99
2022-12-18T00:50:23.533Z,-8.99
2022-12-18T00:51:23.515Z,-8.96
2022-12-18T00:52:23.492Z,-8.97
2022-12-18T00:53:23.560Z,-8.94
2022-12-18T00:54:23.571Z,-8.90
2022-12-18T00:55:23.611Z,-8.87
2022-12-18T00:56:23.711Z,-8.84
2022-12-18T00:57:23.462Z,-8.86
2022-12-18T00:58:23.419Z,-8.87
2022-12-18T00:59:23.438Z,-8.90
2022-12-18T01:00:23.543Z,-8.89
2022-12-18T01:01:23.664Z,-8.84
2022-12-18T01:02:23.543Z,-8.89
2022-12-18T01:03:23.559Z,-8.87
2022-12-18T01:04:23.430Z,-8.89
2022-12-18T01:05:23.657Z,-8.87
2022-12-18T01:06:23.656Z,-8.89
2022-12-18T01:07:23.377Z,-8.87
2022-12-18T01:08:23.449Z,-8.82
2022-12-18T01:09:23.396Z,-8.78
2022-12-18T01:10:23.676Z,-8.81
2022-12-18T01:11:23.664Z,-8.76
2022-12-18T01:12:23.882Z,-8.79
2022-12-18T01:13:23.416Z,-8.82
2022-12-18T01:14:24.353Z,-8.92
2022-12-18T01:15:23.493Z,-8.87
2022-12-18T01:16:23.707Z,-8.96
2022-12-18T01:17:23.643Z,-8.93
2022-12-18T01:18:23.862Z,-8.90
2022-12-18T01:19:23.452Z,-8.89
2022-12-18T01:20:23.721Z,-8.90
2022-12-18T01:21:23.879Z,-8.92
2022-12-18T01:22:23.480Z,-8.90
2022-12-18T01:23:24.100Z,-8.87
2022-12-18T01:24:23.371Z,-8.92
2022-12-18T01:25:23.910Z,-8.92
2022-12-18T01:26:23.360Z,-8.93
2022-12-18T01:27:23.327Z,-8.93
2022-12-18T01:28:23.316Z,-8.93
2022-12-18T01:29:23.328Z,-8.86
2022-12-18T01:30:23.335Z,-8.82
2022-12-18T01:31:23.424Z,-8.84
2022-12-18T01:32:23.396Z,-8.82
2022-12-18T01:33:23.560Z,-8.79
2022-12-18T01:34:23.233Z,-8.82
2022-12-18T01:35:23.203Z,-8.81
2022-12-18T01:36:23.572Z,-8.81
2022-12-18T01:37:23.221Z,-8.79
2022-12-18T01:38:23.583Z,-8.82
2022-12-18T01:39:23.802Z,-8.76
2022-12-18T01:40:23.812Z,-8.76
2022-12-18T01:41:23.203Z,-8.78
2022-12-18T01:42:23.872Z,-8.75
2022-12-18T01:43:23.621Z,-8.66
2022-12-18T01:44:23.633Z,-8.61
2022-12-18T01:45:23.849Z,-8.60
2022-12-18T01:46:23.640Z,-8.54
2022-12-18T01:47:23.979Z,-8.58
2022-12-18T01:48:24.068Z,-8.50
2022-12-18T01:49:23.917Z,-8.39
2022-12-18T01:50:23.257Z,-8.37
2022-12-18T01:51:24.105Z,-8.39
2022-12-18T01:52:24.007Z,-8.40
2022-12-18T01:53:23.127Z,-8.45
2022-12-18T01:54:23.107Z,-8.43
2022-12-18T01:55:23.103Z,-8.43
2022-12-18T01:56:23.084Z,-8.48
2022-12-18T01:57:23.106Z,-8.51
2022-12-18T01:58:23.095Z,-8.53
2022-12-18T01:59:23.115Z,-8.57
2022-12-18T02:00:23.124Z,-8.57
2022-12-18T02:01:23.280Z,-8.60
2022-12-18T02:02:23.242Z,-8.63
2022-12-18T02:03:23.215Z,-8.63
2022-12-18T02:04:23.184Z,-8.71
2022-12-18T02:05:23.211Z,-8.69
2022-12-18T02:06:23.023Z,-8.68
2022-12-18T02:07:23.038Z,-8.71
2022-12-18T02:08:23.042Z,-8.71
2022-12-18T02:09:23.041Z,-8.72
2022-12-18T02:10:23.009Z,-8.71
2022-12-18T02:11:23.028Z,-8.71
2022-12-18T02:12:23.065Z,-8.75
2022-12-18T02:13:23.012Z,-8.74
2022-12-18T02:14:23.058Z,-8.64
2022-12-18T02:15:23.066Z,-8.58
2022-12-18T02:16:23.205Z,-8.55
2022-12-18T02:17:22.978Z,-8.58
2022-12-18T02:18:23.045Z,-8.63
2022-12-18T02:19:23.085Z,-8.64
2022-12-18T02:20:22.946Z,-8.63
2022-12-18T02:21:22.932Z,-8.68
2022-12-18T02:22:23.105Z,-8.66
2022-12-18T02:23:23.283Z,-8.71
2022-12-18T02:24:22.942Z,-8.74
2022-12-18T02:25:22.914Z,-8.74
2022-12-18T02:26:22.952Z,-8.79
2022-12-18T02:27:23.320Z,-8.82
2022-12-18T02:28:23.322Z,-8.86
2022-12-18T02:29:23.332Z,-8.92
2022-12-18T02:30:23.033Z,-8.93
2022-12-18T02:31:22.962Z,-8.94
2022-12-18T02:32:23.356Z,-9.00
2022-12-18T02:33:23.349Z,-9.02
2022-12-18T02:34:22.871Z,-9.05
2022-12-18T02:35:22.959Z,-9.08
2022-12-18T02:36:22.969Z,-9.11
2022-12-18T02:37:23.185Z,-9.08
2022-12-18T02:38:23.395Z,-9.13
2022-12-18T02:39:22.846Z,-9.07
2022-12-18T02:40:23.407Z,-9.10
2022-12-18T02:41:22.857Z,-9.10
2022-12-18T02:42:23.415Z,-9.17
2022-12-18T02:43:22.837Z,-9.18
2022-12-18T02:44:22.834Z,-9.22
2022-12-18T02:45:22.849Z,-9.22
2022-12-18T02:46:23.033Z,-9.24
2022-12-18T02:47:23.046Z,-9.22
2022-12-18T02:48:22.804Z,-9.25
2022-12-18T02:49:22.882Z,-9.31
2022-12-18T02:50:22.863Z,-9.34
2022-12-18T02:51:22.875Z,-9.34
2022-12-18T02:52:22.887Z,-9.31
2022-12-18T02:53:22.882Z,-9.29
2022-12-18T02:54:22.910Z,-9.32
2022-12-18T02:55:23.101Z,-9.32
2022-12-18T02:56:23.113Z,-9.28
2022-12-18T02:57:23.119Z,-9.24
2022-12-18T02:58:22.913Z,-9.18
2022-12-18T02:59:22.943Z,-9.15
2022-12-18T03:00:23.139Z,-9.13
2022-12-18T03:01:22.859Z,-9.08
2022-12-18T03:02:23.095Z,-9.02
2022-12-18T03:03:22.995Z,-8.99
2022-12-18T03:04:23.378Z,-9.04
2022-12-18T03:05:22.755Z,-9.07
2022-12-18T03:06:23.178Z,-9.05
2022-12-18T03:07:23.387Z,-9.02
2022-12-18T03:08:22.986Z,-9.02
2022-12-18T03:09:23.575Z,-9.02
2022-12-18T03:10:23.646Z,-9.04
2022-12-18T03:11:23.008Z,-9.04
2022-12-18T03:12:23.012Z,-9.02
2022-12-18T03:13:23.423Z,-9.02
2022-12-18T03:14:23.561Z,-9.00
2022-12-18T03:15:23.466Z,-9.00
2022-12-18T03:16:22.688Z,-8.99
2022-12-18T03:17:23.042Z,-8.94
2022-12-18T03:18:23.691Z,-8.94
2022-12-18T03:19:22.682Z,-8.86
2022-12-18T03:20:22.708Z,-8.82
2022-12-18T03:21:22.669Z,-8.74
2022-12-18T03:22:22.695Z,-8.79
2022-12-18T03:23:26.097Z,-8.72
2022-12-18T03:24:22.909Z,-8.72
2022-12-18T03:25:22.888Z,-8.69
2022-12-18T03:26:22.903Z,-8.74
2022-12-18T03:27:22.909Z,-8.74
2022-12-18T03:28:22.915Z,-8.71
2022-12-18T03:29:23.125Z,-8.74
2022-12-18T03:30:23.137Z,-8.79
2022-12-18T03:31:22.809Z,-8.72
2022-12-18T03:32:22.951Z,-8.74
2022-12-18T03:33:23.177Z,-8.71
2022-12-18T03:34:23.383Z,-8.68
2022-12-18T03:35:23.384Z,-8.75
2022-12-18T03:36:22.561Z,-8.74
2022-12-18T03:37:22.562Z,-8.81
2022-12-18T03:38:22.583Z,-8.76
2022-12-18T03:39:22.591Z,-8.79
2022-12-18T03:40:22.600Z,-8.78
2022-12-18T03:41:22.599Z,-8.76
2022-12-18T03:42:22.609Z,-8.74
2022-12-18T03:43:22.617Z,-8.78
2022-12-18T03:44:22.619Z,-8.76
2022-12-18T03:45:22.627Z,-8.76
2022-12-18T03:46:22.578Z,-8.71
2022-12-18T03:47:22.477Z,-8.74
2022-12-18T03:48:22.497Z,-8.72
2022-12-18T03:49:22.468Z,-8.76
2022-12-18T03:50:22.705Z,-8.72
2022-12-18T03:51:22.495Z,-8.76
2022-12-18T03:52:22.474Z,-8.74
2022-12-18T03:53:22.474Z,-8.75
2022-12-18T03:54:22.483Z,-8.74
2022-12-18T03:55:22.504Z,-8.75
2022-12-18T03:56:22.502Z,-8.78
2022-12-18T03:57:22.502Z,-8.78
2022-12-18T03:58:22.582Z,-8.81
2022-12-18T03:59:22.513Z,-8.86
2022-12-18T04:00:22.542Z,-8.87
2022-12-18T04:01:22.686Z,-8.90
2022-12-18T04:02:22.475Z,-8.96
2022-12-18T04:03:26.208Z,-8.94
2022-12-18T04:04:22.371Z,-8.94
2022-12-18T04:05:22.772Z,-8.93
2022-12-18T04:06:22.349Z,-8.97
2022-12-18T04:07:22.359Z,-8.96
2022-12-18T04:08:22.781Z,-8.99
2022-12-18T04:09:22.579Z,-8.97
2022-12-18T04:10:22.328Z,-8.96
2022-12-18T04:11:22.327Z,-8.96
2022-12-18T04:12:22.806Z,-8.96
2022-12-18T04:13:22.404Z,-8.93
2022-12-18T04:14:22.815Z,-8.99
2022-12-18T04:15:22.315Z,-9.02
2022-12-18T04:16:22.416Z,-9.00
2022-12-18T04:17:22.846Z,-9.04
2022-12-18T04:18:22.853Z,-9.07
2022-12-18T04:19:22.832Z,-9.02
2022-12-18T04:20:22.272Z,-9.10
2022-12-18T04:21:22.594Z,-9.07
2022-12-18T04:22:22.872Z,-9.11
2022-12-18T04:23:22.884Z,-9.15
2022-12-18T04:24:22.471Z,-9.14
2022-12-18T04:25:22.900Z,-9.17
2022-12-18T04:26:22.308Z,-9.17
2022-12-18T04:27:22.909Z,-9.17
2022-12-18T04:28:22.909Z,-9.17
2022-12-18T04:29:22.711Z,-9.25
2022-12-18T04:30:22.310Z,-9.26
2022-12-18T04:31:23.010Z,-9.22
2022-12-18T04:32:22.348Z,-9.18
2022-12-18T04:33:22.951Z,-9.22
2022-12-18T04:34:22.536Z,-9.22
2022-12-18T04:35:22.544Z,-9.20
2022-12-18T04:36:22.756Z,-9.18
2022-12-18T04:37:22.356Z,-9.13
2022-12-18T04:38:22.357Z,-9.15
2022-12-18T04:39:22.369Z,-9.20
2022-12-18T04:40:22.385Z,-9.24
2022-12-18T04:41:22.384Z,-9.25
2022-12-18T04:42:22.234Z,-9.20
2022-12-18T04:43:22.291Z,-9.28
2022-12-18T04:44:22.605Z,-9.28
2022-12-18T04:45:22.635Z,-9.24
2022-12-18T04:46:22.638Z,-9.20
2022-12-18T04:47:22.221Z,-9.24
2022-12-18T04:48:22.631Z,-9.22
2022-12-18T04:49:22.651Z,-9.18
2022-12-18T04:50:22.851Z,-9.22
2022-12-18T04:51:26.324Z,-9.26
2022-12-18T04:52:23.570Z,-9.25
2022-12-18T04:53:22.880Z,-9.29
2022-12-18T04:54:22.879Z,-9.28
2022-12-18T04:55:22.150Z,-9.29
2022-12-18T04:56:22.196Z,-9.28
2022-12-18T04:57:22.896Z,-9.34
2022-12-18T04:58:22.898Z,-9.32
2022-12-18T04:59:22.297Z,-9.34
2022-12-18T05:00:23.127Z,-9.31
2022-12-18T05:01:23.132Z,-9.32
2022-12-18T05:02:22.175Z,-9.32
2022-12-18T05:03:22.207Z,-9.32
2022-12-18T05:04:22.152Z,-9.31
2022-12-18T05:05:22.139Z,-9.31
2022-12-18T05:06:22.144Z,-9.36
2022-12-18T05:07:22.154Z,-9.35
2022-12-18T05:08:22.223Z,-9.43
2022-12-18T05:09:22.371Z,-9.47
2022-12-18T05:10:22.372Z,-9.47
2022-12-18T05:11:22.382Z,-9.50
2022-12-18T05:12:22.031Z,-9.50
2022-12-18T05:13:22.613Z,-9.53
2022-12-18T05:14:22.608Z,-9.54
2022-12-18T05:15:22.051Z,-9.58
2022-12-18T05:16:22.074Z,-9.58
2022-12-18T05:17:22.008Z,-9.54
2022-12-18T05:18:22.010Z,-9.66
2022-12-18T05:19:22.128Z,-9.62
2022-12-18T05:20:22.237Z,-9.64
2022-12-18T05:21:22.237Z,-9.62
2022-12-18T05:22:22.058Z,-9.68
2022-12-18T05:23:22.457Z,-9.68
2022-12-18T05:24:22.356Z,-9.66
2022-12-18T05:25:22.477Z,-9.68
2022-12-18T05:26:22.476Z,-9.65
2022-12-18T05:27:22.066Z,-9.66
2022-12-18T05:28:22.274Z,-9.68
2022-12-18T05:29:22.494Z,-9.68
2022-12-18T05:30:22.084Z,-9.71
2022-12-18T05:31:21.950Z,-9.72
2022-12-18T05:32:22.095Z,-9.71
2022-12-18T05:33:21.954Z,-9.71
2022-12-18T05:34:22.334Z,-9.66
2022-12-18T05:35:22.531Z,-9.66
2022-12-18T05:36:21.924Z,-9.62
2022-12-18T05:37:22.894Z,-9.61
2022-12-18T05:38:22.040Z,-9.58
2022-12-18T05:39:22.353Z,-9.50
2022-12-18T05:40:22.766Z,-9.54
2022-12-18T05:41:22.170Z,-9.51
2022-12-18T05:42:22.658Z,-9.48
2022-12-18T05:43:21.982Z,-9.44
2022-12-18T05:44:21.968Z,-9.43
2022-12-18T05:45:22.011Z,-9.44
2022-12-18T05:46:22.033Z,-9.39
2022-12-18T05:47:22.398Z,-9.38
2022-12-18T05:48:22.608Z,-9.45
2022-12-18T05:49:22.032Z,-9.32
2022-12-18T05:50:22.007Z,-9.32
2022-12-18T05:51:21.815Z,-9.28
2022-12-18T05:52:21.835Z,-9.25
2022-12-18T05:53:22.633Z,-9.24
2022-12-18T05:54:21.843Z,-9.02
2022-12-18T05:55:22.646Z,-9.02
2022-12-18T05:56:21.853Z,-8.99
2022-12-18T05:57:21.894Z,-8.96
2022-12-18T05:58:21.771Z,-8.92
2022-12-18T05:59:21.981Z,-8.82
2022-12-18T06:00:21.784Z,-8.84
2022-12-18T06:01:21.771Z,-8.82
2022-12-18T06:02:21.882Z,-8.86
2022-12-18T06:03:21.985Z,-8.87
2022-12-18T06:04:21.931Z,-8.92
2022-12-18T06:05:21.970Z,-8.96
2022-12-18T06:06:21.719Z,-8.93
2022-12-18T06:07:21.920Z,-8.92
2022-12-18T06:08:21.729Z,-8.89
2022-12-18T06:09:22.149Z,-8.90
2022-12-18T06:10:21.791Z,-8.92
2022-12-18T06:11:21.706Z,-8.94
2022-12-18T06:12:22.379Z,-8.99
2022-12-18T06:13:22.384Z,-9.04
2022-12-18T06:14:22.386Z,-9.07
2022-12-18T06:15:22.446Z,-9.04
2022-12-18T06:16:22.478Z,-9.05
2022-12-18T06:17:22.186Z,-9.04
2022-12-18T06:18:22.240Z,-9.05
2022-12-18T06:19:22.623Z,-9.11
2022-12-18T06:20:22.593Z,-9.11
2022-12-18T06:21:22.012Z,-9.15
2022-12-18T06:22:22.073Z,-9.10
2022-12-18T06:23:21.632Z,-9.07
2022-12-18T06:24:21.671Z,-9.08
2022-12-18T06:25:21.618Z,-9.05
2022-12-18T06:26:27.617Z,-9.10
2022-12-18T06:27:21.850Z,-9.10
2022-12-18T06:28:21.701Z,-9.14
2022-12-18T06:29:21.860Z,-9.14
2022-12-18T06:30:22.140Z,-9.14
2022-12-18T06:31:22.587Z,-9.14
2022-12-18T06:32:21.617Z,-9.10
2022-12-18T06:33:21.631Z,-9.10
2022-12-18T06:34:21.558Z,-9.11
2022-12-18T06:35:21.898Z,-9.10
2022-12-18T06:36:21.596Z,-9.10
2022-12-18T06:37:21.556Z,-9.10
2022-12-18T06:38:21.565Z,-9.14
2022-12-18T06:39:21.586Z,-9.15
2022-12-18T06:40:21.545Z,-9.15
2022-12-18T06:41:21.545Z,-9.13
2022-12-18T06:42:21.550Z,-9.18
2022-12-18T06:43:21.563Z,-9.20
2022-12-18T06:44:21.544Z,-9.24
2022-12-18T06:45:21.553Z,-9.26
2022-12-18T06:46:21.598Z,-9.28
2022-12-18T06:47:21.572Z,-9.25
2022-12-18T06:48:21.471Z,-9.26
2022-12-18T06:49:23.393Z,-9.24
2022-12-18T06:50:21.590Z,-9.24
2022-12-18T06:51:21.595Z,-9.22
2022-12-18T06:52:21.451Z,-9.14
2022-12-18T06:53:21.460Z,-9.02
2022-12-18T06:54:21.610Z,-8.97
2022-12-18T06:55:21.744Z,-8.94
2022-12-18T06:56:21.430Z,-8.87
2022-12-18T06:57:21.427Z,-8.84
2022-12-18T06:58:21.447Z,-8.87
2022-12-18T06:59:21.447Z,-8.87
2022-12-18T07:00:21.456Z,-8.87
2022-12-18T07:01:21.695Z,-8.89
2022-12-18T07:02:21.624Z,-8.89
2022-12-18T07:03:21.687Z,-8.93
2022-12-18T07:04:21.685Z,-8.90
2022-12-18T07:05:21.695Z,-8.92
2022-12-18T07:06:21.765Z,-8.94
2022-12-18T07:07:21.373Z,-8.93
2022-12-18T07:08:21.412Z,-8.87
2022-12-18T07:09:21.936Z,-8.90
2022-12-18T07:10:21.404Z,-8.89
2022-12-18T07:11:21.356Z,-8.90
2022-12-18T07:12:21.342Z,-8.92
2022-12-18T07:13:21.543Z,-8.94
2022-12-18T07:14:21.540Z,-8.94
2022-12-18T07:15:21.348Z,-8.94
2022-12-18T07:16:25.164Z,-8.92
2022-12-18T07:17:21.373Z,-8.86
2022-12-18T07:18:21.361Z,-8.82
2022-12-18T07:19:21.779Z,-8.82
2022-12-18T07:20:21.370Z,-8.82
2022-12-18T07:21:21.383Z,-8.81
2022-12-18T07:22:21.676Z,-8.84
2022-12-18T07:23:22.018Z,-8.86
2022-12-18T07:24:22.019Z,-8.87
2022-12-18T07:25:22.099Z,-8.92
2022-12-18T07:26:21.632Z,-8.90
2022-12-18T07:27:22.115Z,-8.93
2022-12-18T07:28:22.115Z,-8.90
2022-12-18T07:29:21.292Z,-8.92
2022-12-18T07:30:21.514Z,-8.89
2022-12-18T07:31:22.096Z,-8.86
2022-12-18T07:32:22.144Z,-8.86
2022-12-18T07:33:22.154Z,-8.87
2022-12-18T07:34:21.474Z,-8.87
2022-12-18T07:35:24.928Z,-8.87
2022-12-18T07:36:21.552Z,-8.81
2022-12-18T07:37:22.122Z,-8.84
2022-12-18T07:38:21.681Z,-8.82
2022-12-18T07:39:21.291Z,-8.82
2022-12-18T07:40:21.201Z,-8.82
2022-12-18T07:41:22.002Z,-8.86
2022-12-18T07:42:21.332Z,-8.86
2022-12-18T07:43:21.212Z,-8.87
2022-12-18T07:44:21.939Z,-8.86
2022-12-18T07:45:21.624Z,-8.84
2022-12-18T07:46:21.217Z,-8.78
2022-12-18T07:47:21.167Z,-8.76
2022-12-18T07:48:21.888Z,-8.74
2022-12-18T07:49:21.241Z,-8.69
2022-12-18T07:50:21.245Z,-8.69
2022-12-18T07:51:21.377Z,-8.69
2022-12-18T07:52:25.764Z,-8.61
2022-12-18T07:53:21.396Z,-8.61
2022-12-18T07:54:21.491Z,-8.60
2022-12-18T07:55:21.214Z,-8.61
2022-12-18T07:56:30.004Z,-8.60
2022-12-18T07:57:48.877Z,-8.58
2022-12-18T07:58:21.318Z,-8.58
2022-12-18T07:59:21.442Z,-8.58
2022-12-18T08:00:21.390Z,-8.63
2022-12-18T08:01:21.577Z,-8.63
2022-12-18T08:02:21.636Z,-8.64
2022-12-18T08:03:21.594Z,-8.66
2022-12-18T08:04:21.091Z,-8.61
2022-12-18T08:05:21.069Z,-8.63
2022-12-18T08:06:22.755Z,-8.60
2022-12-18T08:07:21.071Z,-8.51
2022-12-18T08:08:21.091Z,-8.45
2022-12-18T08:09:21.089Z,-8.43
2022-12-18T08:10:21.088Z,-8.36
2022-12-18T08:11:21.537Z,-8.30
2022-12-18T08:12:21.107Z,-8.29
2022-12-18T08:13:21.040Z,-8.25
2022-12-18T08:14:21.125Z,-8.19
2022-12-18T08:15:21.128Z,-8.19
2022-12-18T08:16:21.205Z,-8.21
2022-12-18T08:17:21.145Z,-8.16
2022-12-18T08:18:21.145Z,-8.14
2022-12-18T08:19:21.176Z,-8.14
2022-12-18T08:20:21.154Z,-8.14
2022-12-18T08:21:21.453Z,-8.12
2022-12-18T08:22:21.174Z,-8.04
2022-12-18T08:23:21.032Z,-8.03
2022-12-18T08:24:20.982Z,-7.99
2022-12-18T08:25:21.020Z,-7.97
2022-12-18T08:26:21.090Z,-7.92
2022-12-18T08:27:29.432Z,-7.85
2022-12-18T08:28:21.002Z,-7.79
2022-12-18T08:29:21.771Z,-7.76
2022-12-18T08:30:21.020Z,-7.72
2022-12-18T08:31:21.155Z,-7.72
2022-12-18T08:32:21.048Z,-7.65
2022-12-18T08:33:21.109Z,-7.65
2022-12-18T08:34:21.056Z,-7.63
2022-12-18T08:35:21.090Z,-7.57
2022-12-18T08:36:21.058Z,-7.55
2022-12-18T08:37:21.069Z,-7.46
2022-12-18T08:38:20.970Z,-7.46
2022-12-18T08:39:21.075Z,-7.42
2022-12-18T08:40:20.877Z,-7.36
2022-12-18T08:41:20.876Z,-7.31
2022-12-18T08:42:21.101Z,-7.26
2022-12-18T08:43:21.104Z,-7.21
2022-12-18T08:44:20.904Z,-7.21
2022-12-18T08:45:21.223Z,-7.15
2022-12-18T08:46:21.277Z,-7.11
2022-12-18T08:47:21.233Z,-7.07
2022-12-18T08:48:22.411Z,-7.06
2022-12-18T08:49:20.843Z,-7.04
2022-12-18T08:50:20.852Z,-6.93
2022-12-18T08:51:20.850Z,-6.97
2022-12-18T08:52:20.984Z,-6.90
2022-12-18T08:53:20.970Z,-6.89
2022-12-18T08:54:20.982Z,-6.82
2022-12-18T08:55:20.769Z,-6.80
2022-12-18T08:56:21.201Z,-6.75
2022-12-18T08:57:21.208Z,-6.67
2022-12-18T08:58:21.319Z,-6.64
2022-12-18T08:59:21.318Z,-6.62
2022-12-18T09:00:20.819Z,-6.56
2022-12-18T09:01:20.900Z,-6.50
2022-12-18T09:02:21.069Z,-6.50
2022-12-18T09:03:20.875Z,-6.43
2022-12-18T09:04:20.835Z,-6.37
2022-12-18T09:05:20.837Z,-6.32
2022-12-18T09:06:20.955Z,-6.29
2022-12-18T09:07:20.965Z,-6.28
2022-12-18T09:08:21.063Z,-6.24
2022-12-18T09:09:21.068Z,-6.14
2022-12-18T09:10:20.781Z,-6.11
2022-12-18T09:11:21.084Z,-6.10
2022-12-18T09:12:21.202Z,-6.06
2022-12-18T09:13:20.803Z,-6.06
2022-12-18T09:14:20.814Z,-5.99
2022-12-18T09:15:20.812Z,-5.92
2022-12-18T09:16:21.257Z,-5.90
2022-12-18T09:17:21.553Z,-5.88
2022-12-18T09:18:21.539Z,-5.83
2022-12-18T09:19:21.160Z,-5.85
2022-12-18T09:20:21.049Z,-5.75
2022-12-18T09:21:21.350Z,-5.72
2022-12-18T09:22:20.749Z,-5.74
2022-12-18T09:23:21.693Z,-5.72
2022-12-18T09:24:20.965Z,-5.72
2022-12-18T09:25:21.287Z,-5.68
2022-12-18T09:26:21.667Z,-5.61
2022-12-18T09:27:21.546Z,-5.68
2022-12-18T09:28:20.903Z,-5.59
2022-12-18T09:29:20.865Z,-5.63
2022-12-18T09:30:20.794Z,-5.57
2022-12-18T09:31:21.494Z,-5.60
2022-12-18T09:32:22.489Z,-5.56
2022-12-18T09:33:21.135Z,-5.57
2022-12-18T09:34:20.824Z,-5.57
2022-12-18T09:35:20.946Z,-5.54
2022-12-18T09:36:21.162Z,-5.50
2022-12-18T09:37:20.563Z,-5.46
2022-12-18T09:38:20.582Z,-5.43
2022-12-18T09:39:23.611Z,-5.39
2022-12-18T09:40:20.581Z,-5.36
2022-12-18T09:41:20.601Z,-5.36
2022-12-18T09:42:20.670Z,-5.35
2022-12-18T09:43:20.598Z,-5.32
2022-12-18T09:44:20.722Z,-5.33
2022-12-18T09:45:20.609Z,-5.24
2022-12-18T09:46:20.827Z,-5.18
2022-12-18T09:47:20.630Z,-5.14
2022-12-18T09:48:20.522Z,-5.17
2022-12-18T09:49:20.509Z,-5.09
2022-12-18T09:50:20.740Z,-5.05
2022-12-18T09:51:20.864Z,-5.02
2022-12-18T09:52:20.487Z,-5.01
2022-12-18T09:53:20.878Z,-4.98
2022-12-18T09:54:20.466Z,-5.02
2022-12-18T09:55:20.882Z,-5.03
2022-12-18T09:56:20.487Z,-4.96
2022-12-18T09:57:20.910Z,-5.02
2022-12-18T09:58:21.124Z,-4.99
2022-12-18T09:59:21.125Z,-4.99
2022-12-18T10:00:20.736Z,-4.89
2022-12-18T10:01:20.931Z,-4.87
2022-12-18T10:02:21.195Z,-4.80
2022-12-18T10:03:21.371Z,-4.78
2022-12-18T10:04:21.400Z,-4.74
2022-12-18T10:05:20.742Z,-4.74
2022-12-18T10:06:21.164Z,-4.71
2022-12-18T10:07:21.291Z,-4.63
2022-12-18T10:08:21.192Z,-4.60
2022-12-18T10:09:20.980Z,-4.54
2022-12-18T10:10:21.267Z,-4.48
2022-12-18T10:11:20.368Z,-4.41
2022-12-18T10:12:20.349Z,-4.35
2022-12-18T10:13:21.478Z,-4.21
2022-12-18T10:14:21.087Z,-4.02
2022-12-18T10:15:20.407Z,-3.70
2022-12-18T10:16:20.466Z,-3.44
2022-12-18T10:17:20.496Z,-3.10
2022-12-18T10:18:22.201Z,-2.84
2022-12-18T10:19:20.442Z,-2.73
2022-12-18T10:20:20.590Z,-2.55
2022-12-18T10:21:20.514Z,-2.46
2022-12-18T10:22:20.654Z,-2.35
2022-12-18T10:23:20.663Z,-2.29
2022-12-18T10:24:20.265Z,-2.11
2022-12-18T10:25:20.683Z,-2.03
2022-12-18T10:26:20.763Z,-1.93
2022-12-18T10:27:20.551Z,-1.82
2022-12-18T10:28:20.446Z,-1.69
2022-12-18T10:29:20.701Z,-1.58
2022-12-18T10:30:20.921Z,-1.51
2022-12-18T10:31:21.063Z,-1.49
2022-12-18T10:32:21.142Z,-1.62
2022-12-18T10:33:20.589Z,-1.57
2022-12-18T10:34:20.257Z,-1.61
2022-12-18T10:35:21.028Z,-1.61
2022-12-18T10:36:21.067Z,-1.76
2022-12-18T10:37:20.351Z,-1.78
2022-12-18T10:38:20.827Z,-1.61
2022-12-18T10:39:20.205Z,-1.51
2022-12-18T10:40:22.591Z,-1.46
2022-12-18T10:41:21.786Z,-1.52
2022-12-18T10:42:20.257Z,-1.61
2022-12-18T10:43:20.395Z,-1.61
2022-12-18T10:44:20.256Z,-1.64
2022-12-18T10:45:20.256Z,-1.62
2022-12-18T10:46:20.488Z,-1.62
2022-12-18T10:47:20.417Z,-1.67
2022-12-18T10:48:20.634Z,-1.70
2022-12-18T10:49:20.649Z,-1.69
2022-12-18T10:50:20.103Z,-1.72
2022-12-18T10:51:20.134Z,-1.67
2022-12-18T10:52:20.145Z,-1.72
2022-12-18T10:53:20.146Z,-1.75
2022-12-18T10:54:20.125Z,-1.82
2022-12-18T10:55:20.271Z,-1.85
2022-12-18T10:56:20.110Z,-1.90
2022-12-18T10:57:20.296Z,-1.86
2022-12-18T10:58:26.361Z,-1.88
2022-12-18T10:59:20.351Z,-1.78
2022-12-18T11:00:20.101Z,-1.79
2022-12-18T11:01:20.657Z,-1.76
2022-12-18T11:02:20.863Z,-1.80
2022-12-18T11:03:20.577Z,-1.78
2022-12-18T11:04:20.060Z,-1.78
2022-12-18T11:05:20.018Z,-1.75
2022-12-18T11:06:20.027Z,-1.76
2022-12-18T11:07:20.016Z,-1.78
2022-12-18T11:08:20.026Z,-1.78
2022-12-18T11:09:20.017Z,-1.79
2022-12-18T11:10:20.039Z,-1.75
2022-12-18T11:11:19.976Z,-1.80
2022-12-18T11:12:19.987Z,-1.82
2022-12-18T11:13:19.998Z,-1.83
2022-12-18T11:14:19.995Z,-1.91
2022-12-18T11:15:20.004Z,-1.85
2022-12-18T11:16:20.155Z,-1.73
2022-12-18T11:17:27.318Z,-1.73
2022-12-18T11:18:20.070Z,-1.72
2022-12-18T11:19:20.074Z,-1.69
2022-12-18T11:20:20.084Z,-1.67
2022-12-18T11:21:20.094Z,-1.62
2022-12-18T11:22:20.110Z,-1.57
2022-12-18T11:23:19.912Z,-1.61
2022-12-18T11:24:20.270Z,-1.59
2022-12-18T11:25:32.951Z,-1.55
2022-12-18T11:26:20.283Z,-1.54
2022-12-18T11:27:20.289Z,-1.52
2022-12-18T11:28:19.888Z,-1.54
2022-12-18T11:29:19.925Z,-1.46
2022-12-18T11:30:19.901Z,-1.44
2022-12-18T11:31:19.943Z,-1.40
2022-12-18T11:32:19.970Z,-1.33
2022-12-18T11:33:20.137Z,-1.31
2022-12-18T11:34:29.018Z,-1.33
2022-12-18T11:35:19.987Z,-1.29
2022-12-18T11:36:19.948Z,-1.31
2022-12-18T11:37:19.947Z,-1.29
2022-12-18T11:38:20.025Z,-1.28
2022-12-18T11:39:20.175Z,-1.23
2022-12-18T11:40:20.177Z,-1.21
2022-12-18T11:41:19.792Z,-1.22
2022-12-18T11:42:20.196Z,-1.11
2022-12-18T11:43:20.245Z,-1.13
2022-12-18T11:44:20.824Z,-1.11
2022-12-18T11:45:20.424Z,-1.05
2022-12-18T11:46:20.368Z,-1.04
2022-12-18T11:47:20.014Z,-1.07
2022-12-18T11:48:20.293Z,-1.07
2022-12-18T11:49:19.842Z,-1.07
2022-12-18T11:50:19.873Z,-1.01
2022-12-18T11:51:19.741Z,-1.04
2022-12-18T11:52:19.853Z,-1.01
2022-12-18T11:53:20.060Z,-1.01
2022-12-18T11:54:19.867Z,-0.95
2022-12-18T11:55:19.712Z,-0.94
2022-12-18T11:56:20.053Z,-0.92
2022-12-18T11:57:20.082Z,-0.92
2022-12-18T11:58:20.310Z,-0.90
2022-12-18T11:59:19.771Z,-0.86
2022-12-18T12:00:20.109Z,-0.84
2022-12-18T12:01:20.590Z,-0.84
2022-12-18T12:02:20.552Z,-0.81
2022-12-18T12:03:20.566Z,-0.78
2022-12-18T12:04:20.186Z,-0.78
2022-12-18T12:05:20.548Z,-0.78
2022-12-18T12:06:19.779Z,-0.71
2022-12-18T12:07:19.778Z,-0.71
2022-12-18T12:08:19.757Z,-0.67
2022-12-18T12:09:19.597Z,-0.68
2022-12-18T12:10:19.775Z,-0.68
2022-12-18T12:11:19.769Z,-0.67
2022-12-18T12:12:19.995Z,-0.64
2022-12-18T12:13:19.997Z,-0.63
2022-12-18T12:14:19.625Z,-0.61
2022-12-18T12:15:19.825Z,-0.63
2022-12-18T12:16:20.099Z,-0.63
2022-12-18T12:17:20.271Z,-0.61
2022-12-18T12:18:19.824Z,-0.61
2022-12-18T12:19:20.033Z,-0.61
2022-12-18T12:20:20.253Z,-0.63
2022-12-18T12:21:20.462Z,-0.58
2022-12-18T12:22:20.362Z,-0.61
2022-12-18T12:23:22.468Z,-0.60
2022-12-18T12:24:20.062Z,-0.57
2022-12-18T12:25:20.321Z,-0.55
2022-12-18T12:26:20.231Z,-0.53
2022-12-18T12:27:19.562Z,-0.50
2022-12-18T12:28:19.493Z,-0.60
2022-12-18T12:29:21.268Z,-0.57
2022-12-18T12:30:19.514Z,-0.52
2022-12-18T12:31:19.512Z,-0.50
2022-12-18T12:32:19.508Z,-0.45
2022-12-18T12:33:19.521Z,-0.45
2022-12-18T12:34:19.942Z,-0.46
2022-12-18T12:35:19.529Z,-0.47
2022-12-18T12:36:19.537Z,-0.45
2022-12-18T12:37:19.617Z,-0.39
2022-12-18T12:38:19.547Z,-0.45
2022-12-18T12:39:19.437Z,-0.46
2022-12-18T12:40:49.093Z,-0.40
2022-12-18T12:41:19.446Z,-0.38
2022-12-18T12:42:19.426Z,-0.40
2022-12-18T12:43:19.425Z,-0.42
2022-12-18T12:44:19.385Z,-0.42
2022-12-18T12:45:19.495Z,-0.42
2022-12-18T12:46:19.460Z,-0.42
2022-12-18T12:47:19.403Z,-0.40
2022-12-18T12:48:19.414Z,-0.35
2022-12-18T12:49:19.354Z,-0.39
2022-12-18T12:50:19.335Z,-0.40
2022-12-18T12:51:19.355Z,-0.35
2022-12-18T12:52:19.447Z,-0.38